Time;durP1;ratioP1;P1;durP2;ratioP2;P2;SDS_P1;SDS_P2;PMS_P1;PMS_P2;Temp;Humidity;BMP_temperature;BMP_pressure;BME280_temperature;BME280_humidity;BME280_pressure;Samples;Min_cycle;Max_cycle;Signal;HPM_P1;HPM_P2
2023/12/21 00:02:18;;;;;;;2.8;1.7;;;;;;;4.95;74.07;;;;;
2023/12/21 00:12:18;;;;;;;2.8;1.7;;;;;;;4.87;74.1;;;;;
2023/12/21 00:22:18;;;;;;;4.6;1.6;;;;;;;4.8;74.48;;;;;
2023/12/21 00:33:18;;;;;;;4.6;1.6;;;;;;;4.69;74.81;;;;;
2023/12/21 00:43:18;;;;;;;3;1.8;;;;;;;4.77;74.79;;;;;
2023/12/21 00:54:18;;;;;;;3;1.8;;;;;;;4.97;74.06;;;;;
2023/12/21 01:04:18;;;;;;;3;1.8;;;;;;;5.08;74.19;;;;;
2023/12/21 01:14:18;;;;;;;2.3;1.4;;;;;;;5.08;74.81;;;;;
2023/12/21 01:25:18;;;;;;;2.3;1.4;;;;;;;4.87;76.29;;;;;
2023/12/21 01:35:18;;;;;;;2.3;1.4;;;;;;;4.96;76.6;;;;;
2023/12/21 01:45:18;;;;;;;3.3;1.7;;;;;;;4.9;76.75;;;;;
2023/12/21 01:56:20;;;;;;;3.3;1.7;;;;;;;4.79;77.44;;;;;
2023/12/21 02:07:18;;;;;;;3.3;1.7;;;;;;;4.83;77.68;;;;;
2023/12/21 02:17:18;;;;;;;2.8;1.5;;;;;;;4.8;78.17;;;;;
2023/12/21 02:28:18;;;;;;;2.8;1.5;;;;;;;4.66;80.67;;;;;
2023/12/21 02:39:18;;;;;;;2.8;1.5;;;;;;;4.56;82.23;;;;;
2023/12/21 02:49:18;;;;;;;2.1;1.1;;;;;;;4.41;82.79;;;;;
2023/12/21 03:00:18;;;;;;;2.1;1.1;;;;;;;4.26;83.5;;;;;
2023/12/21 03:11:18;;;;;;;2.1;1.1;;;;;;;4.22;83.18;;;;;
2023/12/21 03:21:18;;;;;;;2;1.1;;;;;;;4.29;82.49;;;;;
2023/12/21 03:31:18;;;;;;;2;1.1;;;;;;;4.27;82.43;;;;;
2023/12/21 03:42:18;;;;;;;2;0.9;;;;;;;4.2;82;;;;;
2023/12/21 03:53:18;;;;;;;2;0.9;;;;;;;4.22;81.71;;;;;
2023/12/21 04:04:18;;;;;;;2;0.9;;;;;;;4.05;81.18;;;;;
2023/12/21 04:14:18;;;;;;;1.4;0.7;;;;;;;3.95;80.83;;;;;
2023/12/21 04:25:18;;;;;;;1.4;0.7;;;;;;;3.81;80.28;;;;;
2023/12/21 04:36:18;;;;;;;1.4;0.7;;;;;;;3.85;79.66;;;;;
2023/12/21 04:46:18;;;;;;;1.6;1;;;;;;;3.94;79.08;;;;;
2023/12/21 04:56:18;;;;;;;1.6;1;;;;;;;3.97;78.16;;;;;
2023/12/21 05:06:18;;;;;;;1.6;1;;;;;;;3.94;77.88;;;;;
2023/12/21 05:17:18;;;;;;;3;0.9;;;;;;;3.95;77.31;;;;;
2023/12/21 05:27:18;;;;;;;3;0.9;;;;;;;4.06;77.06;;;;;
2023/12/21 05:38:18;;;;;;;3;0.9;;;;;;;4.24;76.79;;;;;
2023/12/21 05:49:18;;;;;;;2;0.8;;;;;;;4.48;75.79;;;;;
2023/12/21 06:00:18;;;;;;;2;0.8;;;;;;;4.43;76.05;;;;;
2023/12/21 06:11:18;;;;;;;2;0.8;;;;;;;4.47;76.71;;;;;
2023/12/21 06:21:18;;;;;;;1.2;0.7;;;;;;;4.49;78.15;;;;;
2023/12/21 06:32:18;;;;;;;1.2;0.7;;;;;;;4.51;78.86;;;;;
2023/12/21 06:43:19;;;;;;;1;0.6;;;;;;;4.5;78.87;;;;;
2023/12/21 06:53:18;;;;;;;1;0.6;;;;;;;4.53;79.33;;;;;
2023/12/21 07:03:18;;;;;;;1;0.6;;;;;;;4.4;80.27;;;;;
2023/12/21 07:14:18;;;;;;;1.4;0.8;;;;;;;4.56;80.12;;;;;
2023/12/21 07:24:18;;;;;;;1.4;0.8;;;;;;;4.51;79.59;;;;;
2023/12/21 07:35:18;;;;;;;1.4;0.8;;;;;;;4.58;80.36;;;;;
2023/12/21 07:46:20;;;;;;;1.2;0.7;;;;;;;4.68;81.54;;;;;
2023/12/21 07:57:18;;;;;;;1.2;0.7;;;;;;;4.64;81.7;;;;;
2023/12/21 08:07:18;;;;;;;1.2;0.7;;;;;;;4.53;81.9;;;;;
2023/12/21 08:18:18;;;;;;;2.3;1.2;;;;;;;4.59;81.98;;;;;
2023/12/21 08:28:19;;;;;;;2.3;1.2;;;;;;;4.61;82.03;;;;;
2023/12/21 08:38:18;;;;;;;2.3;1.2;;;;;;;4.39;83.42;;;;;
2023/12/21 08:49:18;;;;;;;1.7;1.1;;;;;;;4.29;84.4;;;;;
2023/12/21 08:59:18;;;;;;;1.7;1.1;;;;;;;4.22;84.91;;;;;
2023/12/21 09:09:18;;;;;;;1.7;1.1;;;;;;;4.34;84.23;;;;;
2023/12/21 09:19:18;;;;;;;1.4;0.7;;;;;;;4.58;83.56;;;;;
2023/12/21 09:30:20;;;;;;;1.4;0.7;;;;;;;4.9;81.94;;;;;
2023/12/21 09:40:18;;;;;;;1.4;0.7;;;;;;;5.12;81.13;;;;;
2023/12/21 09:51:18;;;;;;;1.9;1.1;;;;;;;5.1;79.98;;;;;
2023/12/21 10:01:18;;;;;;;1.9;1.1;;;;;;;5.2;79.23;;;;;
2023/12/21 10:11:19;;;;;;;1.9;1.1;;;;;;;5.63;78.45;;;;;
2023/12/21 10:22:19;;;;;;;0.6;0.4;;;;;;;6.09;75.49;;;;;
2023/12/21 10:33:18;;;;;;;0.6;0.4;;;;;;;6.32;74.07;;;;;
2023/12/21 10:44:18;;;;;;;1.7;1;;;;;;;6.4;73.28;;;;;
2023/12/21 10:54:19;;;;;;;1.7;1;;;;;;;6.42;72.64;;;;;
2023/12/21 11:05:20;;;;;;;1.7;1;;;;;;;6.51;72.69;;;;;
2023/12/21 11:16:18;;;;;;;1.8;0.9;;;;;;;6.47;72.72;;;;;
2023/12/21 11:26:18;;;;;;;1.8;0.9;;;;;;;6.89;72.26;;;;;
2023/12/21 11:37:18;;;;;;;1.8;0.9;;;;;;;6.92;71.13;;;;;
2023/12/21 11:48:19;;;;;;;1.5;0.8;;;;;;;6.98;71.18;;;;;
2023/12/21 11:59:18;;;;;;;1.5;0.8;;;;;;;6.88;70.72;;;;;
2023/12/21 12:09:19;;;;;;;1.5;0.8;;;;;;;6.64;71.29;;;;;
2023/12/21 12:20:18;;;;;;;1.8;0.8;;;;;;;6.68;71.39;;;;;
2023/12/21 12:31:18;;;;;;;1.8;0.8;;;;;;;6.61;72.2;;;;;
2023/12/21 12:41:18;;;;;;;1.6;0.9;;;;;;;6.65;72.73;;;;;
2023/12/21 12:52:20;;;;;;;1.6;0.9;;;;;;;6.56;73.5;;;;;
2023/12/21 13:02:18;;;;;;;1.6;0.9;;;;;;;6.36;74.37;;;;;
2023/12/21 13:12:19;;;;;;;2.1;0.9;;;;;;;6.25;75.53;;;;;
2023/12/21 13:22:18;;;;;;;2.1;0.9;;;;;;;6.21;75.7;;;;;
2023/12/21 13:33:18;;;;;;;2.1;0.9;;;;;;;5.95;77.89;;;;;
2023/12/21 13:43:18;;;;;;;2.4;1.1;;;;;;;5.79;78.12;;;;;
2023/12/21 13:54:18;;;;;;;2.4;1.1;;;;;;;5.68;79.19;;;;;
2023/12/21 14:05:18;;;;;;;2.4;1.1;;;;;;;5.48;80.71;;;;;
2023/12/21 14:16:19;;;;;;;1.7;1;;;;;;;5.44;81.44;;;;;
2023/12/21 14:26:20;;;;;;;1.7;1;;;;;;;5.24;81.95;;;;;
2023/12/21 14:37:18;;;;;;;1.7;1;;;;;;;5.21;82.36;;;;;
2023/12/21 14:47:18;;;;;;;1.7;1;;;;;;;5.11;82.87;;;;;
2023/12/21 14:57:18;;;;;;;1.7;1;;;;;;;5.16;82.85;;;;;
2023/12/21 15:08:20;;;;;;;1.7;1;;;;;;;5.13;83.04;;;;;
2023/12/21 15:18:18;;;;;;;2.5;1.5;;;;;;;5.18;83.12;;;;;
2023/12/21 15:28:18;;;;;;;2.5;1.5;;;;;;;5.22;82.37;;;;;
2023/12/21 15:39:19;;;;;;;2.5;1.5;;;;;;;5.24;82.69;;;;;
2023/12/21 15:49:20;;;;;;;3.1;1.3;;;;;;;5.26;82.76;;;;;
2023/12/21 16:00:18;;;;;;;3.1;1.3;;;;;;;5.23;82.93;;;;;
2023/12/21 16:11:18;;;;;;;2.5;1.3;;;;;;;5.31;82.64;;;;;
2023/12/21 16:21:18;;;;;;;2.5;1.3;;;;;;;5.44;82.13;;;;;
2023/12/21 16:31:18;;;;;;;2.5;1.3;;;;;;;5.52;81.79;;;;;
2023/12/21 16:42:18;;;;;;;1.7;0.9;;;;;;;5.5;81.94;;;;;
2023/12/21 16:52:18;;;;;;;1.7;0.9;;;;;;;5.51;82.15;;;;;
2023/12/21 17:02:18;;;;;;;1.7;0.9;;;;;;;5.54;81.56;;;;;
2023/12/21 17:13:18;;;;;;;2.9;1.2;;;;;;;5.71;80.44;;;;;
2023/12/21 17:24:18;;;;;;;2.9;1.2;;;;;;;5.79;79.46;;;;;
2023/12/21 17:34:18;;;;;;;2.9;1.2;;;;;;;5.91;78.99;;;;;
2023/12/21 17:45:18;;;;;;;2.5;1.3;;;;;;;5.96;78.59;;;;;
2023/12/21 17:55:18;;;;;;;2.5;1.3;;;;;;;6.08;78.11;;;;;
2023/12/21 18:06:18;;;;;;;2.5;1.3;;;;;;;6.19;77.68;;;;;
2023/12/21 18:17:18;;;;;;;2.1;1;;;;;;;6.16;79.64;;;;;
2023/12/21 18:27:19;;;;;;;2.1;1;;;;;;;6;80.64;;;;;
2023/12/21 18:37:18;;;;;;;2.1;1;;;;;;;5.85;82.53;;;;;
2023/12/21 18:47:18;;;;;;;3.3;1.2;;;;;;;5.85;82.48;;;;;
2023/12/21 18:58:18;;;;;;;3.3;1.2;;;;;;;5.66;83.81;;;;;
2023/12/21 19:08:19;;;;;;;3.3;1.2;;;;;;;5.58;83.87;;;;;
2023/12/21 19:19:18;;;;;;;2.8;1.1;;;;;;;5.57;83.47;;;;;
2023/12/21 19:30:19;;;;;;;2.8;1.1;;;;;;;5.58;82.57;;;;;
2023/12/21 19:40:19;;;;;;;2.8;1.1;;;;;;;5.78;80.92;;;;;
2023/12/21 19:51:22;;;;;;;3.6;1.5;;;;;;;6.02;80;;;;;
2023/12/21 20:01:19;;;;;;;3.6;1.5;;;;;;;6.17;79.85;;;;;
2023/12/21 20:12:19;;;;;;;3.1;1.3;;;;;;;6.25;80.15;;;;;
2023/12/21 20:23:18;;;;;;;3.1;1.3;;;;;;;6.28;80.08;;;;;
2023/12/21 20:33:19;;;;;;;3.1;1.3;;;;;;;6.4;79.91;;;;;
2023/12/21 20:44:19;;;;;;;2.4;1;;;;;;;6.35;80.49;;;;;
2023/12/21 20:55:21;;;;;;;2.4;1;;;;;;;6.38;80.28;;;;;
2023/12/21 21:05:19;;;;;;;2.4;1;;;;;;;6.34;82.78;;;;;
2023/12/21 21:16:20;;;;;;;1.6;0.7;;;;;;;6.18;84.56;;;;;
2023/12/21 21:27:19;;;;;;;1.6;0.7;;;;;;;6.15;84.53;;;;;
2023/12/21 21:38:19;;;;;;;1.6;0.7;;;;;;;6.15;85.1;;;;;
2023/12/21 21:48:19;;;;;;;3;1.3;;;;;;;6.02;85.92;;;;;
2023/12/21 21:59:19;;;;;;;3;1.3;;;;;;;5.93;87.69;;;;;
2023/12/21 22:09:19;;;;;;;3;1.3;;;;;;;5.52;87.62;;;;;
2023/12/21 22:20:19;;;;;;;2.8;1.3;;;;;;;5.38;88.43;;;;;
2023/12/21 22:30:19;;;;;;;2.8;1.3;;;;;;;5.27;87.83;;;;;
2023/12/21 22:41:19;;;;;;;2;1;;;;;;;5.15;87.97;;;;;
2023/12/21 22:52:19;;;;;;;2;1;;;;;;;4.92;89.13;;;;;
2023/12/21 23:02:19;;;;;;;2;1;;;;;;;4.83;89.62;;;;;
2023/12/21 23:12:19;;;;;;;4.3;0.9;;;;;;;4.9;90.41;;;;;
2023/12/21 23:23:19;;;;;;;4.3;0.9;;;;;;;5.08;90.08;;;;;
2023/12/21 23:33:21;;;;;;;4.3;0.9;;;;;;;4.99;90.56;;;;;
2023/12/21 23:44:19;;;;;;;2.2;1.2;;;;;;;5.1;91.2;;;;;
2023/12/21 23:54:19;;;;;;;2.2;1.2;;;;;;;5.26;89.48;;;;;
